sim
Sign-in with your pilot id or email,
or register
Callsign
Passwort

Schedule Details

Flight Number: OEO1631
Departure: Billund Airport (EKBI) at 14:05
Arrival: Munich Airport (EDDM) at 15:50

Weather Information
Getting current METAR information for EKBI 240820Z 21017G33KT 180V240 9999 SCT029 15/10 Q0996
Getting current METAR information for EDDM 240820Z 23008KT 180V260 CAVOK 17/14 Q1010 NOSIG

Schedule Frequency

Route Map